SANTIAGO DE COMPOSTELA, GALICIA

latitud = 42° 53' 17''N | Longitud = 008° 24' 38''W
370 metros sobre el nivel del mar | datos mensuales

Fecha, hora, temperatura, viento dirección y velocidad, humedad y presión.

  • 23-04-2018 10:00:00 | 10.30°C | Este |6.00 km/h | 96.00% | 976.70 hPa
  • 23-04-2018 09:00:00 | 10.00°C | Nordeste |6.00 km/h | 98.00% | 976.50 hPa
  • 23-04-2018 08:00:00 | 10.10°C | Nordeste |5.00 km/h | 98.00% | 976.00 hPa
  • 23-04-2018 07:00:00 | 10.00°C | Nordeste |3.00 km/h | 98.00% | 975.80 hPa
  • 23-04-2018 06:00:00 | 9.80°C | Norte |5.00 km/h | 98.00% | 975.60 hPa
  • 23-04-2018 05:00:00 | 9.70°C | Norte |7.00 km/h | 98.00% | 975.70 hPa
  • 23-04-2018 04:00:00 | 9.90°C | Norte |12.00 km/h | 97.00% | 975.90 hPa
  • 23-04-2018 03:00:00 | 10.20°C | Norte |10.00 km/h | 96.00% | 975.70 hPa
  • 23-04-2018 02:00:00 | 10.30°C | Nordeste |7.00 km/h | 94.00% | 975.90 hPa
  • 23-04-2018 01:00:00 | 10.50°C | Norte |11.00 km/h | 95.00% | 976.00 hPa
  • 23-04-2018 00:00:00 | 10.60°C | Norte |12.00 km/h | 94.00% | 976.00 hPa
  • 22-04-2018 23:00:00 | 10.70°C | Norte |14.00 km/h | 93.00% | 975.80 hPa
  • 22-04-2018 22:00:00 | 10.80°C | Norte |9.00 km/h | 92.00% | 975.20 hPa
  • 22-04-2018 21:00:00 | 10.90°C | Norte |23.00 km/h | 92.00% | 974.30 hPa
  • 22-04-2018 20:00:00 | 12.80°C | Norte |22.00 km/h | 86.00% | 973.80 hPa
  • 22-04-2018 19:00:00 | 18.20°C | Norte |19.00 km/h | 70.00% | 972.90 hPa
  • 22-04-2018 18:00:00 | 20.70°C | Norte |16.00 km/h | 65.00% | 972.10 hPa
  • 22-04-2018 17:00:00 | 21.60°C | Norte |15.00 km/h | 59.00% | 972.20 hPa
  • 22-04-2018 16:00:00 | 21.10°C | Norte |13.00 km/h | 61.00% | 972.80 hPa
  • 22-04-2018 15:00:00 | 20.40°C | Noroeste |12.00 km/h | 56.00% | 972.80 hPa
  • 22-04-2018 14:00:00 | 19.30°C | Norte |8.00 km/h | 59.00% | 973.00 hPa
  • 22-04-2018 13:00:00 | 17.90°C | Noroeste |9.00 km/h | 65.00% | 973.50 hPa
  • 22-04-2018 12:00:00 | 16.70°C | Noroeste |6.00 km/h | 74.00% | 973.50 hPa
  • 22-04-2018 11:00:00 | 15.60°C | Sur |4.00 km/h | 80.00% | 973.50 hPa